Airfield :
LOGIN :

Register | Disclaimer

   EN    FR    IT 

 










Legend :    VFR   Marginal VFR   IFR   Intensive IFR   Very Intensive IFR
Visi :
Ceiling :
>= 8 km
>= 3000ft
5 to 8 km
1000 to 3000 ft
1500m to 5 km
500 to 1000 ft
800 to 1500m
200 to 500 ft
< 800m
< 200 ft
Symbols :   Thunderstorms  Fog  Heavy snow  Heavy precipitations  Wind > 20 kt
SIGMETs :     Misc.  Thunderstorms  Icing  Turbulence  Mountain Waves  Volcanic Ashes






- Airport Elevation : 1299 ft


EDTY - Adolf Würth

CURRENT METAR :
  • 200750Z 28011KT 9999 SCT008 BKN010 OVC012 02/00 Q1023

EXPIRED METARs :
  • 200720Z 27008KT 240V300 9999 BKN008 BKN013 02/00 Q1022
  • 200650Z 26010KT 9999 OVC006 02/01 Q1022
  • 200620Z 26010KT 230V290 9999 -RA OVC006 02/01 Q1022
  • 200550Z 26009KT 9999 OVC006 02/01 Q1022
  • 200520Z AUTO 26012KT 9999 // OVC006/// 02/01 Q1022

TAF TAF EDTY
Valid from the 20 at 07:00 until the 20 at 15:00 UTC


200608Z 2007/2015 26010KT 9999 BKN008
PROB30
TEMPO 2007/2009 OVC004
TEMPO 2008/2013 32015KT 2000 SHSNGS BKN008TCU
BECMG 2012/2014 SCT012 BKN020



MET'MAP, your aeronautical weather chart ! - Copyright ORBIFLY December 2007 - Disclaimer

ORBIFLY MET'MAP TEAM :

Programming & Development : Alexandra Zaïnal
Concept & original design : Baudouin d'Aumeries
Assistance for programming : Marc-Olivier Méhu
Technical & hardware support : Manuel Goepfert

Contact : metmap@orbifly.com




SOURCES & CREDITS :

   NOAA